Time;durP1;ratioP1;P1;durP2;ratioP2;P2;SDS_P1;SDS_P2;PMS_P1;PMS_P2;Temp;Humidity;BMP_temperature;BMP_pressure;BME280_temperature;BME280_humidity;BME280_pressure;Samples;Min_cycle;Max_cycle;Signal;HPM_P1;HPM_P2
2022/12/04 00:02:18;;;;;;;9.17;8.13;;;;;;;6.16;60.68;97752.84;8380361;28;20248;-74
2022/12/04 00:06:22;;;;;;;11.93;9.20;;;;;;;6.28;60.95;97749.06;8380336;28;20290;-73
2022/12/04 00:10:25;;;;;;;9.57;8.50;;;;;;;6.17;60.40;97738.25;8380143;28;20532;-74
2022/12/04 00:14:28;;;;;;;11.13;9.53;;;;;;;6.31;60.69;97730.97;8380214;28;20225;-75
2022/12/04 00:18:32;;;;;;;11.17;8.87;;;;;;;6.20;60.70;97721.00;8380170;28;20292;-75
2022/12/04 00:22:34;;;;;;;11.20;9.07;;;;;;;6.11;60.29;97717.88;8380148;28;20259;-73
2022/12/04 00:26:37;;;;;;;10.47;9.30;;;;;;;6.22;60.67;97705.53;8382816;28;20236;-74
2022/12/04 00:30:41;;;;;;;10.80;8.87;;;;;;;6.32;60.15;97706.97;8386809;28;20229;-74
2022/12/04 00:34:45;;;;;;;10.47;9.37;;;;;;;6.15;60.86;97709.19;8386264;28;20236;-74
2022/12/04 00:38:48;;;;;;;9.53;8.60;;;;;;;6.22;60.88;97708.13;8386557;28;20294;-74
2022/12/04 00:42:51;;;;;;;12.50;10.40;;;;;;;5.94;61.07;97718.34;8386474;28;20279;-74
2022/12/04 00:46:54;;;;;;;12.50;10.47;;;;;;;6.19;61.32;97700.50;8378126;28;20232;-74
2022/12/04 00:51:02;;;;;;;11.17;9.23;;;;;;;6.27;60.97;97698.53;8386086;28;20384;-74
2022/12/04 00:55:06;;;;;;;14.50;10.40;;;;;;;5.43;62.28;97701.84;8385897;28;20232;-74
2022/12/04 00:59:10;;;;;;;12.43;10.40;;;;;;;6.00;61.90;97705.38;8385801;28;20282;-74
2022/12/04 01:03:13;;;;;;;12.83;10.43;;;;;;;6.19;61.01;97691.06;8385611;28;20229;-74
2022/12/04 01:07:17;;;;;;;11.03;9.53;;;;;;;6.22;60.91;97677.25;8385472;28;20217;-74
2022/12/04 01:11:21;;;;;;;11.77;9.20;;;;;;;6.36;61.08;97684.53;8385757;28;20240;-74
2022/12/04 01:15:24;;;;;;;11.23;9.43;;;;;;;6.36;60.52;97674.22;8385740;28;20229;-74
2022/12/04 01:19:26;;;;;;;10.67;9.03;;;;;;;5.97;61.60;97675.44;8385539;28;20225;-74
2022/12/04 01:23:31;;;;;;;10.40;9.17;;;;;;;6.28;61.13;97671.91;8384805;28;20237;-74
2022/12/04 01:27:34;;;;;;;11.23;9.20;;;;;;;6.10;61.72;97663.06;8384987;28;20271;-74
2022/12/04 01:31:37;;;;;;;10.57;9.27;;;;;;;5.86;62.20;97682.59;8384798;28;20229;-74
2022/12/04 01:35:40;;;;;;;11.80;9.20;;;;;;;6.16;61.17;97680.84;8384865;28;20225;-74
2022/12/04 01:39:44;;;;;;;10.13;8.77;;;;;;;6.14;61.57;97677.50;8384704;28;20299;-74
2022/12/04 01:44:08;;;;;;;11.73;9.70;;;;;;;6.34;60.95;97682.03;8384649;28;20241;-74
2022/12/04 01:48:18;;;;;;;12.90;9.70;;;;;;;5.99;62.07;97690.81;8384220;28;20571;-74
2022/12/04 01:52:22;;;;;;;10.77;9.27;;;;;;;5.98;62.03;97690.00;8384229;28;20229;-74
2022/12/04 01:56:31;;;;;;;10.40;9.30;;;;;;;6.03;61.46;97684.69;8383987;28;20244;-74
2022/12/04 02:00:34;;;;;;;10.27;9.10;;;;;;;6.49;60.75;97672.13;8384194;28;20239;-74
2022/12/04 02:04:37;;;;;;;11.13;9.17;;;;;;;5.70;62.58;97677.09;8383924;28;20240;-74
2022/12/04 02:08:40;;;;;;;10.73;9.10;;;;;;;5.66;63.79;97668.63;8383828;28;20244;-74
2022/12/04 02:12:48;;;;;;;11.33;9.63;;;;;;;6.11;61.35;97654.47;8384019;28;20236;-74
2022/12/04 02:16:57;;;;;;;12.00;8.97;;;;;;;6.36;60.92;97664.81;8383664;28;20229;-74
2022/12/04 02:21:03;;;;;;;11.37;9.30;;;;;;;6.23;61.75;97678.94;8382948;28;20267;-74
2022/12/04 02:25:14;;;;;;;9.83;8.80;;;;;;;6.29;61.58;97670.19;8383245;28;20278;-74
2022/12/04 02:29:26;;;;;;;9.37;8.37;;;;;;;6.39;61.04;97669.00;8383132;28;20225;-74
2022/12/04 02:33:34;;;;;;;10.10;8.70;;;;;;;6.13;62.42;97669.81;8383201;28;20517;-74
2022/12/04 02:37:38;;;;;;;8.63;7.83;;;;;;;6.37;61.59;97661.34;8382922;28;20242;-74
2022/12/04 02:41:44;;;;;;;10.30;8.53;;;;;;;5.84;62.74;97662.09;8382587;28;20240;-74
2022/12/04 02:45:52;;;;;;;10.47;8.43;;;;;;;5.93;62.46;97660.97;8382303;28;20292;-74
2022/12/04 02:49:58;;;;;;;9.30;8.30;;;;;;;5.52;62.95;97657.06;8381598;28;20225;-73
2022/12/04 02:54:05;;;;;;;10.10;8.70;;;;;;;6.14;61.63;97663.81;8382225;28;20236;-74
2022/12/04 02:58:13;;;;;;;9.50;8.43;;;;;;;5.73;62.82;97666.72;8382174;28;20233;-74
2022/12/04 03:02:23;;;;;;;10.87;8.63;;;;;;;5.81;62.66;97662.19;8382051;28;20248;-73
2022/12/04 03:06:28;;;;;;;10.20;8.37;;;;;;;5.97;62.99;97669.47;8382124;28;20229;-74
2022/12/04 03:10:34;;;;;;;10.33;9.23;;;;;;;5.53;63.87;97667.28;8381801;28;20252;-74
2022/12/04 03:14:40;;;;;;;9.83;8.37;;;;;;;6.14;62.19;97654.34;8381998;28;20232;-74
2022/12/04 03:18:47;;;;;;;9.27;8.33;;;;;;;5.26;65.32;97661.22;8382135;28;20236;-74
2022/12/04 03:22:53;;;;;;;9.50;8.50;;;;;;;5.16;65.13;97642.66;8381427;28;20237;-74
2022/12/04 03:27:01;;;;;;;9.00;8.10;;;;;;;5.71;64.22;97637.63;8381141;28;20469;-74
2022/12/04 03:31:07;;;;;;;9.43;8.40;;;;;;;5.94;63.50;97636.09;8381344;28;20236;-74
2022/12/04 03:35:16;;;;;;;9.73;8.60;;;;;;;5.81;62.88;97644.19;8381199;28;20235;-74
2022/12/04 03:39:21;;;;;;;8.80;7.60;;;;;;;5.88;63.55;97634.56;8380826;28;20233;-74
2022/12/04 03:43:27;;;;;;;9.17;7.80;;;;;;;5.70;63.49;97633.41;8380686;28;20244;-74
2022/12/04 03:47:34;;;;;;;9.13;8.13;;;;;;;5.55;64.50;97628.72;8380864;28;20231;-74
2022/12/04 03:51:43;;;;;;;8.63;7.73;;;;;;;5.90;62.95;97609.66;8380758;28;20236;-74
2022/12/04 03:55:49;;;;;;;7.27;6.57;;;;;;;6.10;63.22;97611.63;8380616;28;20233;-74
2022/12/04 03:59:56;;;;;;;8.07;7.27;;;;;;;5.89;62.59;97615.69;8379292;28;20253;-72
2022/12/04 04:04:01;;;;;;;8.10;7.30;;;;;;;5.81;64.28;97615.09;8380304;28;20232;-74
2022/12/04 04:12:26;;;;;;;9.70;7.87;;;;;;;6.40;62.05;97614.13;8380135;28;20366;-74
2022/12/04 04:25:20;;;;;;;8.90;7.33;;;;;;;6.44;61.47;97603.66;8375015;28;20282;-74
2022/12/04 04:29:23;;;;;;;8.23;7.20;;;;;;;6.38;62.06;97595.31;8379832;28;20294;-74
2022/12/04 04:33:26;;;;;;;10.67;8.10;;;;;;;5.77;64.15;97596.38;8380225;28;20235;-74
2022/12/04 04:37:33;;;;;;;8.87;7.17;;;;;;;6.38;62.78;97600.47;8380023;28;20240;-73
2022/12/04 04:41:42;;;;;;;8.73;7.53;;;;;;;6.64;61.42;97597.00;8379887;28;20244;-73
2022/12/04 04:45:46;;;;;;;9.00;7.90;;;;;;;6.33;62.33;97594.63;8379741;28;20298;-74
2022/12/04 04:49:50;;;;;;;7.37;6.63;;;;;;;6.63;61.79;97610.75;8379563;28;20221;-73
2022/12/04 04:53:56;;;;;;;8.00;7.20;;;;;;;6.49;62.02;97598.34;8379458;28;20232;-72
2022/12/04 04:58:08;;;;;;;7.87;6.80;;;;;;;6.43;61.84;97583.13;8379794;28;20229;-74
2022/12/04 05:02:11;;;;;;;7.70;6.90;;;;;;;6.64;61.90;97609.84;8379506;28;20229;-73
2022/12/04 05:06:14;;;;;;;6.90;6.20;;;;;;;6.82;61.13;97626.41;8379520;28;20224;-73
2022/12/04 05:10:17;;;;;;;7.47;6.77;;;;;;;6.82;61.57;97624.66;8379160;28;20233;-73
2022/12/04 05:14:21;;;;;;;7.50;6.70;;;;;;;6.86;61.12;97627.97;8384428;28;20248;-73
2022/12/04 05:18:24;;;;;;;7.30;6.60;;;;;;;6.91;61.25;97632.97;8385342;28;20259;-73
2022/12/04 05:22:28;;;;;;;7.57;6.70;;;;;;;6.90;60.83;97619.25;8385046;28;20229;-74
2022/12/04 05:26:31;;;;;;;7.00;6.30;;;;;;;6.89;60.77;97637.31;8385066;28;20459;-74
2022/12/04 05:30:35;;;;;;;7.50;6.80;;;;;;;6.84;60.97;97637.50;8385466;28;20245;-74
2022/12/04 05:34:38;;;;;;;7.03;6.33;;;;;;;6.91;61.26;97636.41;8384940;28;20239;-73
2022/12/04 05:38:41;;;;;;;7.37;6.67;;;;;;;7.00;60.92;97635.22;8389912;28;20237;-73
2022/12/04 05:42:44;;;;;;;7.30;6.60;;;;;;;6.98;60.90;97630.13;8395381;28;20231;-73
2022/12/04 05:46:48;;;;;;;7.10;6.40;;;;;;;7.06;60.80;97645.28;8384261;28;20240;-74
2022/12/04 05:50:51;;;;;;;6.67;6.07;;;;;;;6.96;61.08;97639.63;8384282;28;20229;-74
2022/12/04 05:54:54;;;;;;;7.27;6.57;;;;;;;6.91;61.23;97644.13;8383682;28;20236;-72
2022/12/04 05:58:57;;;;;;;6.77;6.07;;;;;;;6.97;61.08;97637.91;8384135;28;20258;-73
2022/12/04 06:03:01;;;;;;;7.10;6.40;;;;;;;7.01;60.59;97649.78;8383764;28;20347;-73
2022/12/04 06:07:03;;;;;;;7.10;6.27;;;;;;;6.93;60.93;97655.19;8383542;28;20284;-73
2022/12/04 06:11:10;;;;;;;7.07;6.37;;;;;;;6.79;61.33;97654.81;8383710;28;20275;-73
2022/12/04 06:15:13;;;;;;;6.87;5.90;;;;;;;7.09;60.59;97660.66;8383536;28;20227;-73
2022/12/04 06:19:20;;;;;;;6.70;6.10;;;;;;;7.05;60.99;97656.50;8383621;28;20224;-73
2022/12/04 06:23:23;;;;;;;6.70;6.10;;;;;;;6.98;61.25;97655.84;8382242;28;20407;-73
2022/12/04 06:27:26;;;;;;;7.40;6.70;;;;;;;6.84;61.26;97648.63;8383256;28;20237;-73
2022/12/04 06:31:32;;;;;;;7.43;6.73;;;;;;;6.74;61.95;97625.81;8382362;28;20639;-74
2022/12/04 06:35:37;;;;;;;7.20;6.50;;;;;;;6.96;61.23;97657.66;8381791;28;20224;-74
2022/12/04 06:39:39;;;;;;;8.03;6.80;;;;;;;6.95;61.58;97652.56;8382611;28;20225;-73
2022/12/04 06:43:42;;;;;;;7.03;6.10;;;;;;;7.01;61.46;97645.47;8382617;28;20259;-74
2022/12/04 06:47:45;;;;;;;6.90;6.20;;;;;;;6.98;61.85;97647.31;8382812;28;20274;-74
2022/12/04 06:51:49;;;;;;;6.67;6.10;;;;;;;6.97;61.66;97648.22;8382558;28;20422;-74
2022/12/04 06:55:52;;;;;;;6.90;6.30;;;;;;;7.03;60.96;97656.56;8382093;28;20287;-71
2022/12/04 06:59:54;;;;;;;7.47;6.73;;;;;;;6.90;61.16;97650.16;8382393;28;20275;-72
2022/12/04 07:03:59;;;;;;;6.80;6.20;;;;;;;6.98;61.55;97655.03;8381882;28;20229;-73
2022/12/04 07:08:04;;;;;;;7.93;6.67;;;;;;;7.04;61.43;97665.97;8382009;28;20238;-73
2022/12/04 07:12:07;;;;;;;6.93;6.20;;;;;;;7.03;61.55;97659.13;8381220;28;20233;-73
2022/12/04 07:16:14;;;;;;;6.97;6.27;;;;;;;7.00;61.08;97659.22;8381745;28;20473;-73
2022/12/04 07:20:17;;;;;;;6.17;5.67;;;;;;;7.13;61.38;97658.81;8381780;28;20221;-73
2022/12/04 07:24:21;;;;;;;7.00;6.30;;;;;;;6.98;61.66;97632.69;8381636;28;20240;-72
2022/12/04 07:28:23;;;;;;;8.43;6.93;;;;;;;6.80;61.62;97611.03;8381514;28;20520;-73
2022/12/04 07:32:26;;;;;;;7.90;6.90;;;;;;;6.93;61.57;97606.28;8381320;28;20229;-73
2022/12/04 07:36:29;;;;;;;6.70;6.00;;;;;;;6.89;62.11;97603.84;8381000;28;20233;-73
2022/12/04 07:40:33;;;;;;;6.97;6.00;;;;;;;7.05;61.59;97599.84;8381014;28;20239;-73
2022/12/04 07:44:36;;;;;;;6.03;5.43;;;;;;;7.14;61.51;97607.25;8380855;28;20237;-73
2022/12/04 07:48:39;;;;;;;6.53;5.93;;;;;;;6.99;62.10;97624.09;8380936;28;20290;-73
2022/12/04 07:52:42;;;;;;;7.63;6.87;;;;;;;7.00;61.73;97630.06;8380902;28;20551;-73
2022/12/04 07:56:46;;;;;;;7.60;6.50;;;;;;;7.16;61.16;97626.06;8380846;28;20229;-73
2022/12/04 08:00:49;;;;;;;6.87;6.17;;;;;;;7.17;61.15;97617.44;8379958;28;20295;-73
2022/12/04 08:04:52;;;;;;;6.47;5.87;;;;;;;7.08;61.56;97604.03;8380667;28;20236;-72
2022/12/04 08:08:56;;;;;;;7.27;6.20;;;;;;;7.32;61.02;97634.06;8379740;28;20224;-73
2022/12/04 08:13:00;;;;;;;6.50;5.90;;;;;;;7.11;61.48;97627.94;8380245;28;20536;-73
2022/12/04 08:17:03;;;;;;;6.50;5.90;;;;;;;7.39;61.11;97626.97;8380392;28;20232;-72
2022/12/04 08:21:08;;;;;;;7.03;6.33;;;;;;;7.34;60.95;97636.59;8379836;28;20331;-73
2022/12/04 08:25:11;;;;;;;6.90;6.30;;;;;;;7.18;61.48;97623.44;8380096;28;20235;-73
2022/12/04 08:29:15;;;;;;;6.90;6.30;;;;;;;7.41;61.00;97622.59;8379566;28;20235;-73
2022/12/04 08:33:18;;;;;;;7.93;7.13;;;;;;;7.19;61.52;97620.78;8379983;28;20231;-73
2022/12/04 08:37:21;;;;;;;7.70;6.93;;;;;;;7.55;60.73;97624.66;8380045;28;20236;-73
2022/12/04 08:41:25;;;;;;;7.13;6.43;;;;;;;7.23;60.80;97618.94;8379676;28;20224;-72
2022/12/04 08:45:29;;;;;;;8.10;7.30;;;;;;;7.39;61.32;97620.06;8379741;28;20404;-73
2022/12/04 08:49:32;;;;;;;7.73;7.03;;;;;;;6.85;63.28;97624.56;8385687;28;20236;-73
2022/12/04 08:53:36;;;;;;;7.67;6.97;;;;;;;7.11;61.96;97632.28;8386095;28;20274;-73
2022/12/04 08:57:39;;;;;;;8.00;7.00;;;;;;;7.34;61.09;97641.75;8386202;28;20232;-73
2022/12/04 09:01:43;;;;;;;6.50;5.90;;;;;;;7.17;62.04;97647.50;8386198;28;20524;-73
2022/12/04 09:05:46;;;;;;;7.80;7.00;;;;;;;7.05;61.96;97646.19;8385744;28;20229;-74
2022/12/04 09:09:48;;;;;;;12.27;9.50;;;;;;;7.23;61.51;97645.56;8385777;28;20241;-73
2022/12/04 09:13:51;;;;;;;6.80;6.10;;;;;;;6.96;63.41;97647.34;8385642;28;20229;-73
2022/12/04 09:17:56;;;;;;;7.17;6.43;;;;;;;6.84;62.79;97648.63;8384932;28;20252;-73
2022/12/04 09:21:58;;;;;;;8.83;7.93;;;;;;;7.09;62.34;97652.09;8385023;28;20228;-73
2022/12/04 09:26:02;;;;;;;8.20;6.93;;;;;;;6.94;62.19;97638.00;8384618;28;20306;-73
2022/12/04 09:30:05;;;;;;;7.13;6.43;;;;;;;6.03;65.79;97641.00;8385170;28;20240;-73
2022/12/04 09:34:10;;;;;;;7.50;6.80;;;;;;;6.41;64.64;97632.03;8384589;28;20217;-73
2022/12/04 09:38:13;;;;;;;8.07;7.27;;;;;;;6.76;65.02;97640.34;8385050;28;20414;-74
2022/12/04 09:42:25;;;;;;;6.63;6.03;;;;;;;7.29;62.48;97638.47;8385126;28;20757;-74
2022/12/04 09:46:31;;;;;;;6.57;5.97;;;;;;;6.48;65.59;97627.56;8384559;28;20245;-74
2022/12/04 09:50:39;;;;;;;10.27;9.17;;;;;;;6.44;64.86;97629.38;8384777;28;20236;-75
2022/12/04 09:54:43;;;;;;;10.47;8.53;;;;;;;7.10;64.14;97622.84;8384230;28;20233;-74
2022/12/04 09:58:49;;;;;;;6.73;6.13;;;;;;;6.63;64.36;97603.88;8384049;28;20221;-73
2022/12/04 10:02:56;;;;;;;6.60;6.00;;;;;;;7.13;62.47;97579.81;8383474;28;20225;-70
2022/12/04 10:07:05;;;;;;;7.60;6.20;;;;;;;6.51;65.00;97585.44;8383693;28;20232;-73
2022/12/04 10:11:12;;;;;;;9.20;7.67;;;;;;;6.73;64.79;97578.66;8383869;28;20547;-74
2022/12/04 10:15:30;;;;;;;8.80;6.73;;;;;;;6.68;64.46;97601.13;8383376;28;20232;-75
2022/12/04 10:19:37;;;;;;;9.67;8.67;;;;;;;6.90;63.92;97610.69;8383190;28;20497;-73
2022/12/04 10:23:51;;;;;;;7.97;7.17;;;;;;;6.77;64.24;97575.09;8383384;28;20540;-74
2022/12/04 10:27:56;;;;;;;7.90;7.00;;;;;;;7.17;63.10;97586.53;8382449;28;20233;-74
2022/12/04 10:32:15;;;;;;;6.43;5.83;;;;;;;6.49;65.26;97577.75;8383215;28;20267;-74
2022/12/04 10:36:21;;;;;;;6.77;6.07;;;;;;;6.88;63.71;97584.19;8383034;28;20420;-74
2022/12/04 10:40:28;;;;;;;8.07;6.47;;;;;;;6.77;65.44;97563.94;8382924;28;20302;-74
2022/12/04 10:44:31;;;;;;;9.10;8.20;;;;;;;7.36;63.34;97552.34;8382662;28;20563;-74
2022/12/04 10:48:35;;;;;;;6.80;6.20;;;;;;;7.53;62.21;97533.69;8382506;28;20229;-74
2022/12/04 10:52:38;;;;;;;14.83;12.37;;;;;;;7.65;62.47;97556.38;8382069;28;20265;-74
2022/12/04 10:56:52;;;;;;;7.20;6.50;;;;;;;7.86;62.03;97559.00;8382302;28;20236;-75
2022/12/04 11:01:01;;;;;;;9.10;7.40;;;;;;;7.89;62.83;97548.59;8381865;28;20232;-73
2022/12/04 11:05:07;;;;;;;7.97;7.13;;;;;;;7.78;62.20;97526.63;8382081;28;20248;-73
2022/12/04 11:09:21;;;;;;;7.27;6.57;;;;;;;7.79;62.10;97530.09;8381340;28;20248;-75
2022/12/04 11:13:25;;;;;;;7.10;6.40;;;;;;;7.92;62.70;97530.41;8381446;28;20225;-75
2022/12/04 11:17:27;;;;;;;6.77;6.07;;;;;;;7.48;62.44;97513.22;8381727;28;20255;-75
2022/12/04 11:21:31;;;;;;;8.63;6.33;;;;;;;7.93;65.23;97499.41;8381394;28;20229;-74
2022/12/04 11:25:36;;;;;;;7.53;6.70;;;;;;;8.06;62.37;97506.66;8381100;28;20244;-75
2022/12/04 11:29:43;;;;;;;9.00;8.10;;;;;;;8.17;61.94;97501.88;8381228;28;20469;-75
2022/12/04 11:33:48;;;;;;;9.10;7.37;;;;;;;8.24;61.85;97490.38;8381261;28;20220;-75
2022/12/04 11:37:54;;;;;;;9.47;8.47;;;;;;;8.47;61.27;97492.00;8381198;28;20318;-75
2022/12/04 11:42:01;;;;;;;6.13;5.50;;;;;;;8.45;61.50;97488.66;8380766;28;20252;-76
2022/12/04 11:46:06;;;;;;;5.77;5.20;;;;;;;8.57;61.59;97484.72;8380937;28;20260;-76
2022/12/04 11:50:14;;;;;;;7.17;6.47;;;;;;;8.55;62.02;97484.78;8380933;28;20235;-76
2022/12/04 11:54:23;;;;;;;6.20;5.60;;;;;;;8.42;61.65;97486.22;8380599;28;20241;-76
2022/12/04 11:58:50;;;;;;;5.63;5.13;;;;;;;8.45;61.40;97495.56;8380773;28;20229;-76
2022/12/04 12:03:10;;;;;;;7.13;6.20;;;;;;;8.31;61.72;97503.88;8380241;28;20221;-74
2022/12/04 12:07:23;;;;;;;6.30;5.70;;;;;;;8.21;61.97;97501.69;8379955;28;20292;-75
2022/12/04 12:11:30;;;;;;;7.37;6.67;;;;;;;8.57;61.54;97487.31;8380644;28;20236;-75
2022/12/04 12:15:39;;;;;;;5.80;5.30;;;;;;;8.61;61.20;97483.69;8380495;28;20270;-75
2022/12/04 12:20:05;;;;;;;7.83;5.50;;;;;;;10.71;78.15;97480.47;8380298;28;20237;-80
2022/12/04 12:24:17;;;;;;;5.20;4.73;;;;;;;11.07;61.70;97458.69;8385606;28;20269;-83
2022/12/04 12:28:29;;;;;;;11.97;7.07;;;;;;;9.23;59.47;97458.47;8387048;28;20234;-75
2022/12/04 12:32:41;;;;;;;5.80;5.30;;;;;;;9.58;60.05;97445.63;8386684;28;20247;-75
2022/12/04 12:36:48;;;;;;;6.07;5.57;;;;;;;9.30;59.61;97421.09;8387645;28;20233;-75
2022/12/04 12:40:54;;;;;;;5.50;5.00;;;;;;;9.34;60.14;97435.53;8386897;28;20250;-75
2022/12/04 12:45:01;;;;;;;5.23;4.83;;;;;;;9.06;60.46;97420.50;8386152;28;20238;-74
2022/12/04 12:49:09;;;;;;;7.03;6.33;;;;;;;8.93;60.77;97442.66;8386720;28;20229;-77
2022/12/04 12:53:16;;;;;;;6.60;5.87;;;;;;;9.07;60.75;97440.28;8386402;28;20245;-75
2022/12/04 12:57:22;;;;;;;6.60;5.33;;;;;;;9.11;60.80;97446.13;8386414;28;20259;-77
2022/12/04 13:01:29;;;;;;;8.83;6.60;;;;;;;8.99;61.14;97442.38;8386274;28;20234;-76
2022/12/04 13:05:35;;;;;;;6.87;5.43;;;;;;;8.91;60.84;97427.25;8386011;28;20245;-77
2022/12/04 13:09:42;;;;;;;7.17;6.20;;;;;;;9.08;61.22;97441.97;8386056;28;20234;-76
2022/12/04 13:13:47;;;;;;;5.73;5.17;;;;;;;8.77;61.12;97412.38;8386017;28;20293;-75
2022/12/04 13:17:52;;;;;;;7.03;6.30;;;;;;;8.98;61.39;97428.63;8385854;28;20237;-75
2022/12/04 13:22:01;;;;;;;7.10;6.40;;;;;;;9.03;61.35;97425.84;8384982;28;20252;-75
2022/12/04 13:26:10;;;;;;;7.13;6.37;;;;;;;8.87;61.88;97427.44;8385286;28;20591;-75
2022/12/04 13:30:16;;;;;;;6.43;5.83;;;;;;;8.96;61.40;97402.03;8385474;28;20226;-75
2022/12/04 13:34:39;;;;;;;6.57;5.97;;;;;;;9.05;61.27;97423.19;8384627;28;20225;-75
2022/12/04 13:38:53;;;;;;;6.03;5.50;;;;;;;9.00;62.03;97401.00;8384941;28;20477;-74
2022/12/04 13:43:14;;;;;;;7.50;6.60;;;;;;;8.97;61.46;97408.03;8384355;28;20240;-75
2022/12/04 13:47:27;;;;;;;7.77;6.93;;;;;;;8.97;61.79;97413.22;8384608;28;20293;-74
2022/12/04 13:51:37;;;;;;;7.17;6.57;;;;;;;8.99;61.47;97404.47;8384572;28;20229;-75
2022/12/04 13:55:40;;;;;;;6.63;6.10;;;;;;;8.88;62.06;97398.13;8384640;28;20234;-75
2022/12/04 13:59:45;;;;;;;6.53;5.93;;;;;;;9.04;62.40;97406.00;8384612;28;20234;-74
2022/12/04 14:03:49;;;;;;;6.50;5.90;;;;;;;9.14;61.98;97404.66;8384390;28;20583;-75
2022/12/04 14:08:00;;;;;;;9.40;8.47;;;;;;;9.09;62.04;97391.97;8383457;28;20236;-73
2022/12/04 14:12:12;;;;;;;7.77;6.97;;;;;;;9.18;62.17;97395.88;8384129;28;20426;-76
2022/12/04 14:16:22;;;;;;;8.53;7.30;;;;;;;9.11;61.99;97391.88;8383995;28;20516;-75
2022/12/04 14:20:27;;;;;;;7.67;6.87;;;;;;;8.90;62.91;97391.97;8383700;28;20233;-77
2022/12/04 14:24:34;;;;;;;6.70;6.00;;;;;;;8.91;63.20;97387.66;8383717;28;20249;-75
2022/12/04 14:28:41;;;;;;;6.97;6.23;;;;;;;9.09;62.53;97388.53;8382971;28;20241;-75
2022/12/04 14:32:47;;;;;;;7.40;6.67;;;;;;;9.02;62.46;97395.72;8383334;28;20243;-76
2022/12/04 14:36:51;;;;;;;6.80;6.10;;;;;;;8.84;63.32;97387.13;8383041;28;20234;-74
2022/12/04 14:40:56;;;;;;;9.90;7.33;;;;;;;8.87;63.28;97399.91;8382518;28;20564;-74
2022/12/04 14:45:01;;;;;;;7.57;6.77;;;;;;;8.90;62.94;97394.56;8381673;28;20225;-75
2022/12/04 14:49:17;;;;;;;7.47;6.77;;;;;;;8.89;62.69;97404.97;8382384;28;20236;-75
2022/12/04 14:53:30;;;;;;;8.50;7.70;;;;;;;9.01;62.40;97399.25;8382515;28;20238;-75
2022/12/04 14:57:45;;;;;;;7.30;6.60;;;;;;;8.89;62.79;97404.97;8382696;28;20310;-75
2022/12/04 15:01:49;;;;;;;10.10;9.03;;;;;;;8.92;62.76;97407.41;8382521;28;20230;-76
2022/12/04 15:06:01;;;;;;;8.13;7.43;;;;;;;9.12;62.20;97406.47;8381565;28;20226;-73
2022/12/04 15:14:40;;;;;;;7.57;6.73;;;;;;;9.05;62.58;97411.09;8382335;28;20240;-76
2022/12/04 15:18:53;;;;;;;7.50;6.70;;;;;;;9.00;62.63;97410.47;8382197;28;20225;-76
2022/12/04 15:22:57;;;;;;;7.90;7.10;;;;;;;8.97;62.28;97411.47;8381768;28;20528;-75
2022/12/04 15:27:00;;;;;;;8.60;7.77;;;;;;;9.01;62.59;97412.16;8380335;28;20258;-76
2022/12/04 15:31:05;;;;;;;7.27;6.57;;;;;;;8.97;63.44;97410.63;8381583;28;20225;-75
2022/12/04 15:35:13;;;;;;;8.70;7.90;;;;;;;9.02;63.03;97420.72;8381601;28;20240;-76
2022/12/04 15:39:19;;;;;;;8.80;7.90;;;;;;;8.69;62.63;97365.41;8382013;28;20517;-76
2022/12/04 15:43:27;;;;;;;8.10;7.30;;;;;;;8.99;62.58;97419.97;8393729;28;20229;-75
2022/12/04 15:47:32;;;;;;;10.27;9.07;;;;;;;9.04;62.87;97426.66;8395890;28;20229;-75
2022/12/04 15:51:34;;;;;;;8.43;7.60;;;;;;;9.02;62.84;97423.31;8390437;28;20282;-76
2022/12/04 15:55:40;;;;;;;8.83;7.93;;;;;;;9.00;62.91;97434.56;8394721;28;20252;-76
2022/12/04 15:59:48;;;;;;;8.30;7.50;;;;;;;8.85;62.66;97414.59;8393366;28;20471;-76
2022/12/04 16:03:53;;;;;;;8.90;8.00;;;;;;;9.03;62.61;97430.16;8383494;28;20405;-75
2022/12/04 16:07:58;;;;;;;9.40;8.43;;;;;;;8.89;63.06;97425.63;8381748;28;20294;-76
2022/12/04 16:12:04;;;;;;;9.63;8.63;;;;;;;8.74;63.61;97414.28;8381452;28;20225;-76
2022/12/04 16:16:11;;;;;;;9.27;8.10;;;;;;;8.94;63.04;97437.41;8381210;28;20233;-77
2022/12/04 16:20:14;;;;;;;9.10;8.20;;;;;;;9.02;62.90;97433.66;8381047;28;20236;-77
2022/12/04 16:24:16;;;;;;;10.03;8.47;;;;;;;8.91;62.74;97440.16;8380898;28;20237;-76
2022/12/04 16:28:21;;;;;;;9.03;7.30;;;;;;;8.91;62.95;97437.56;8380647;28;20263;-76
2022/12/04 16:32:27;;;;;;;10.07;7.80;;;;;;;8.92;62.99;97436.66;8382456;28;20232;-76
2022/12/04 16:36:31;;;;;;;9.07;8.17;;;;;;;8.94;62.34;97434.84;8380238;28;20232;-75
2022/12/04 16:40:33;;;;;;;8.10;7.30;;;;;;;8.94;62.29;97431.41;8380255;28;20229;-76
2022/12/04 16:44:39;;;;;;;9.60;8.60;;;;;;;9.02;62.58;97429.31;8380740;28;20236;-77
2022/12/04 16:48:42;;;;;;;9.20;8.20;;;;;;;8.94;62.91;97421.09;8380390;28;20538;-75
2022/12/04 16:52:45;;;;;;;9.03;7.70;;;;;;;8.89;62.72;97410.13;8379931;28;20237;-76
2022/12/04 16:56:48;;;;;;;9.43;8.43;;;;;;;8.94;62.83;97427.09;8379887;28;20529;-75
2022/12/04 17:00:54;;;;;;;9.90;8.90;;;;;;;8.80;62.29;97417.41;8380453;28;20234;-76
2022/12/04 17:04:57;;;;;;;9.40;8.50;;;;;;;8.97;62.66;97420.97;8379980;28;20553;-76
2022/12/04 17:09:00;;;;;;;9.70;8.70;;;;;;;8.64;64.03;97423.31;8383127;28;20256;-77
2022/12/04 17:13:03;;;;;;;9.70;8.70;;;;;;;8.87;62.73;97422.28;8385998;28;20572;-77
2022/12/04 17:17:07;;;;;;;8.80;7.90;;;;;;;8.90;62.93;97425.56;8386528;28;20237;-76
2022/12/04 17:21:12;;;;;;;9.27;8.23;;;;;;;8.78;62.88;97428.72;8385723;28;20240;-75
2022/12/04 17:25:15;;;;;;;11.53;9.93;;;;;;;8.91;63.04;97436.72;8385910;28;20236;-75
2022/12/04 17:29:18;;;;;;;11.27;10.07;;;;;;;8.98;62.76;97430.38;8385266;28;20255;-76
2022/12/04 17:33:22;;;;;;;16.87;12.90;;;;;;;8.94;62.86;97437.41;8385497;28;20267;-76
2022/12/04 17:37:25;;;;;;;19.03;13.50;;;;;;;8.97;62.67;97426.13;8385563;28;20233;-74
2022/12/04 17:41:28;;;;;;;17.23;13.73;;;;;;;9.00;62.59;97436.28;8385371;28;20229;-74
2022/12/04 17:45:31;;;;;;;17.87;14.20;;;;;;;8.99;62.59;97435.47;8384746;28;20405;-74
2022/12/04 17:49:36;;;;;;;14.60;11.60;;;;;;;9.11;62.19;97444.38;8384364;28;20300;-74
2022/12/04 17:53:38;;;;;;;10.90;9.37;;;;;;;9.09;62.36;97451.38;8384217;28;20237;-74
2022/12/04 17:57:41;;;;;;;9.57;8.67;;;;;;;9.12;62.51;97447.78;8384390;28;20437;-74
2022/12/04 18:01:44;;;;;;;19.23;11.10;;;;;;;9.34;69.33;97448.47;8384216;28;20224;-76
2022/12/04 18:05:48;;;;;;;16.43;12.00;;;;;;;10.04;72.77;97451.09;8384167;28;20516;-75
2022/12/04 18:09:51;;;;;;;11.83;10.50;;;;;;;9.42;62.32;97450.69;8383944;28;20367;-76
2022/12/04 18:13:55;;;;;;;10.60;9.20;;;;;;;9.39;61.96;97461.19;8375865;28;20225;-76
2022/12/04 18:17:58;;;;;;;12.10;10.80;;;;;;;9.24;61.93;97452.41;8383675;28;20229;-76
2022/12/04 18:22:02;;;;;;;10.60;9.50;;;;;;;9.27;62.22;97452.28;8381953;28;20235;-78
2022/12/04 18:26:07;;;;;;;12.27;10.63;;;;;;;9.23;62.25;97445.53;8383295;28;20238;-76
2022/12/04 18:30:11;;;;;;;18.97;17.07;;;;;;;9.09;62.82;97438.44;8383703;28;20249;-77
2022/12/04 18:34:14;;;;;;;10.20;9.20;;;;;;;8.99;63.45;97419.13;8383234;28;20217;-78
2022/12/04 18:38:18;;;;;;;9.90;8.90;;;;;;;9.04;62.92;97426.66;8383606;28;20220;-77
2022/12/04 18:42:21;;;;;;;10.00;8.50;;;;;;;9.03;63.48;97418.09;8383049;28;20235;-77
2022/12/04 18:46:24;;;;;;;9.90;8.63;;;;;;;8.83;64.37;97411.25;8382706;28;20235;-76
2022/12/04 18:50:29;;;;;;;10.40;8.93;;;;;;;8.57;64.90;97384.06;8382811;28;20321;-76
2022/12/04 18:54:33;;;;;;;11.83;9.73;;;;;;;8.64;65.53;97424.16;8382590;28;20230;-76
2022/12/04 18:58:36;;;;;;;10.53;9.43;;;;;;;8.63;65.70;97427.66;8382728;28;20271;-76
2022/12/04 19:02:38;;;;;;;9.97;8.97;;;;;;;8.84;65.00;97432.75;8382961;28;20225;-77
2022/12/04 19:06:42;;;;;;;10.13;9.13;;;;;;;8.88;64.79;97437.69;8382096;28;20328;-76
2022/12/04 19:10:47;;;;;;;13.13;10.73;;;;;;;8.90;65.07;97435.06;8382065;28;20295;-77
2022/12/04 19:14:49;;;;;;;24.30;17.53;;;;;;;8.95;65.02;97448.59;8382149;28;20230;-76
2022/12/04 19:18:52;;;;;;;47.83;27.17;;;;;;;8.94;64.69;97436.59;8381416;28;20230;-73
2022/12/04 19:22:55;;;;;;;17.77;13.37;;;;;;;8.60;65.25;97438.09;8381916;28;20324;-75
2022/12/04 19:27:00;;;;;;;13.03;10.07;;;;;;;8.88;65.46;97442.03;8381984;28;20237;-78
2022/12/04 19:31:04;;;;;;;11.27;10.07;;;;;;;8.93;65.07;97442.66;8381308;28;20242;-77
2022/12/04 19:35:07;;;;;;;13.17;11.77;;;;;;;8.85;65.42;97444.75;8381234;28;20225;-77
2022/12/04 19:39:10;;;;;;;12.93;11.63;;;;;;;8.88;65.25;97440.28;8381194;28;20242;-76
2022/12/04 19:43:14;;;;;;;18.07;14.13;;;;;;;8.79;65.78;97449.28;8381336;28;20243;-79